sensor_id;sensor_type;location;lat;lon;timestamp;P1;durP1;ratioP1;P2;durP2;ratioP2
14770;SDS011;7477;45.222;5.688;2022-09-03T00:02:02;4.13;;;2.88;;
14770;SDS011;7477;45.222;5.688;2022-09-03T00:05:43;4.32;;;2.88;;
14770;SDS011;7477;45.222;5.688;2022-09-03T00:09:18;3.55;;;2.50;;
14770;SDS011;7477;45.222;5.688;2022-09-03T00:12:44;6.88;;;2.92;;
14770;SDS011;7477;45.222;5.688;2022-09-03T00:16:06;3.13;;;2.70;;
14770;SDS011;7477;45.222;5.688;2022-09-03T00:19:32;3.15;;;2.85;;
14770;SDS011;7477;45.222;5.688;2022-09-03T00:22:58;5.10;;;3.00;;
14770;SDS011;7477;45.222;5.688;2022-09-03T00:26:24;4.20;;;3.47;;
14770;SDS011;7477;45.222;5.688;2022-09-03T00:30:00;3.72;;;3.22;;
14770;SDS011;7477;45.222;5.688;2022-09-03T00:33:32;4.25;;;2.92;;
14770;SDS011;7477;45.222;5.688;2022-09-03T00:36:53;3.90;;;2.70;;
14770;SDS011;7477;45.222;5.688;2022-09-03T00:40:17;3.97;;;2.40;;
14770;SDS011;7477;45.222;5.688;2022-09-03T00:51:17;4.22;;;2.85;;
14770;SDS011;7477;45.222;5.688;2022-09-03T01:17:06;3.10;;;2.80;;
14770;SDS011;7477;45.222;5.688;2022-09-03T01:31:12;4.25;;;2.85;;
14770;SDS011;7477;45.222;5.688;2022-09-03T01:34:57;3.80;;;3.00;;
14770;SDS011;7477;45.222;5.688;2022-09-03T01:42:04;3.38;;;3.08;;
14770;SDS011;7477;45.222;5.688;2022-09-03T02:00:18;4.00;;;3.10;;
14770;SDS011;7477;45.222;5.688;2022-09-03T02:03:38;2.85;;;2.55;;
14770;SDS011;7477;45.222;5.688;2022-09-03T02:07:02;3.55;;;2.75;;
14770;SDS011;7477;45.222;5.688;2022-09-03T02:10:33;4.38;;;2.63;;
14770;SDS011;7477;45.222;5.688;2022-09-03T02:14:01;4.20;;;2.90;;
14770;SDS011;7477;45.222;5.688;2022-09-03T02:17:22;2.53;;;2.33;;
14770;SDS011;7477;45.222;5.688;2022-09-03T02:20:42;3.97;;;3.25;;
14770;SDS011;7477;45.222;5.688;2022-09-03T02:24:03;6.22;;;3.55;;
14770;SDS011;7477;45.222;5.688;2022-09-03T02:27:25;4.35;;;3.78;;
14770;SDS011;7477;45.222;5.688;2022-09-03T02:30:45;4.07;;;3.67;;
14770;SDS011;7477;45.222;5.688;2022-09-03T02:34:05;4.57;;;4.15;;
14770;SDS011;7477;45.222;5.688;2022-09-03T02:37:24;5.18;;;3.92;;
14770;SDS011;7477;45.222;5.688;2022-09-03T02:40:44;4.20;;;3.78;;
14770;SDS011;7477;45.222;5.688;2022-09-03T02:44:06;3.58;;;2.90;;
14770;SDS011;7477;45.222;5.688;2022-09-03T02:47:51;5.15;;;2.67;;
14770;SDS011;7477;45.222;5.688;2022-09-03T02:51:14;4.68;;;3.17;;
14770;SDS011;7477;45.222;5.688;2022-09-03T02:54:34;3.80;;;2.70;;
14770;SDS011;7477;45.222;5.688;2022-09-03T02:57:57;3.67;;;2.72;;
14770;SDS011;7477;45.222;5.688;2022-09-03T03:01:18;5.60;;;3.00;;
14770;SDS011;7477;45.222;5.688;2022-09-03T03:04:38;3.10;;;2.72;;
14770;SDS011;7477;45.222;5.688;2022-09-03T03:07:57;3.90;;;2.90;;
14770;SDS011;7477;45.222;5.688;2022-09-03T03:11:17;4.60;;;3.03;;
14770;SDS011;7477;45.222;5.688;2022-09-03T03:14:37;3.17;;;2.88;;
14770;SDS011;7477;45.222;5.688;2022-09-03T03:17:56;4.00;;;3.25;;
14770;SDS011;7477;45.222;5.688;2022-09-03T03:21:16;4.72;;;2.75;;
14770;SDS011;7477;45.222;5.688;2022-09-03T03:24:37;3.47;;;3.00;;
14770;SDS011;7477;45.222;5.688;2022-09-03T03:27:56;5.35;;;3.17;;
14770;SDS011;7477;45.222;5.688;2022-09-03T03:31:16;3.25;;;2.85;;
14770;SDS011;7477;45.222;5.688;2022-09-03T03:34:38;5.05;;;3.10;;
14770;SDS011;7477;45.222;5.688;2022-09-03T03:37:57;3.78;;;3.17;;
14770;SDS011;7477;45.222;5.688;2022-09-03T03:41:18;3.22;;;2.75;;
14770;SDS011;7477;45.222;5.688;2022-09-03T03:44:42;3.25;;;2.70;;
14770;SDS011;7477;45.222;5.688;2022-09-03T03:48:01;4.97;;;3.22;;
14770;SDS011;7477;45.222;5.688;2022-09-03T03:51:21;5.32;;;2.92;;
14770;SDS011;7477;45.222;5.688;2022-09-03T03:54:40;4.68;;;3.10;;
14770;SDS011;7477;45.222;5.688;2022-09-03T03:57:59;3.45;;;3.13;;
14770;SDS011;7477;45.222;5.688;2022-09-03T04:01:19;4.05;;;3.38;;
14770;SDS011;7477;45.222;5.688;2022-09-03T04:04:41;5.93;;;3.40;;
14770;SDS011;7477;45.222;5.688;2022-09-03T04:08:00;4.55;;;3.40;;
14770;SDS011;7477;45.222;5.688;2022-09-03T04:11:21;4.50;;;3.45;;
14770;SDS011;7477;45.222;5.688;2022-09-03T04:14:41;4.90;;;3.25;;
14770;SDS011;7477;45.222;5.688;2022-09-03T04:18:01;3.70;;;2.92;;
14770;SDS011;7477;45.222;5.688;2022-09-03T04:21:21;6.30;;;3.05;;
14770;SDS011;7477;45.222;5.688;2022-09-03T04:24:42;3.55;;;3.25;;
14770;SDS011;7477;45.222;5.688;2022-09-03T04:28:01;6.03;;;3.00;;
14770;SDS011;7477;45.222;5.688;2022-09-03T04:31:22;3.63;;;3.05;;
14770;SDS011;7477;45.222;5.688;2022-09-03T04:34:41;3.78;;;3.00;;
14770;SDS011;7477;45.222;5.688;2022-09-03T04:38:00;3.40;;;3.03;;
14770;SDS011;7477;45.222;5.688;2022-09-03T04:41:23;3.33;;;3.03;;
14770;SDS011;7477;45.222;5.688;2022-09-03T04:44:44;3.10;;;2.80;;
14770;SDS011;7477;45.222;5.688;2022-09-03T04:48:03;3.38;;;2.65;;
14770;SDS011;7477;45.222;5.688;2022-09-03T04:51:24;3.38;;;2.65;;
14770;SDS011;7477;45.222;5.688;2022-09-03T04:54:45;3.60;;;3.30;;
14770;SDS011;7477;45.222;5.688;2022-09-03T04:58:04;4.25;;;2.95;;
14770;SDS011;7477;45.222;5.688;2022-09-03T05:01:27;3.25;;;2.63;;
14770;SDS011;7477;45.222;5.688;2022-09-03T05:04:49;4.63;;;3.17;;
14770;SDS011;7477;45.222;5.688;2022-09-03T05:08:08;4.70;;;3.08;;
14770;SDS011;7477;45.222;5.688;2022-09-03T05:11:28;4.38;;;3.40;;
14770;SDS011;7477;45.222;5.688;2022-09-03T05:14:47;4.68;;;3.60;;
14770;SDS011;7477;45.222;5.688;2022-09-03T05:18:07;4.25;;;3.85;;
14770;SDS011;7477;45.222;5.688;2022-09-03T05:21:26;4.20;;;3.80;;
14770;SDS011;7477;45.222;5.688;2022-09-03T05:24:47;5.57;;;3.60;;
14770;SDS011;7477;45.222;5.688;2022-09-03T05:28:06;4.43;;;3.67;;
14770;SDS011;7477;45.222;5.688;2022-09-03T05:31:26;7.18;;;3.95;;
14770;SDS011;7477;45.222;5.688;2022-09-03T05:34:48;6.95;;;3.03;;
14770;SDS011;7477;45.222;5.688;2022-09-03T05:38:08;4.22;;;3.42;;
14770;SDS011;7477;45.222;5.688;2022-09-03T05:41:28;4.63;;;3.45;;
14770;SDS011;7477;45.222;5.688;2022-09-03T05:44:47;3.80;;;3.40;;
14770;SDS011;7477;45.222;5.688;2022-09-03T05:48:06;4.65;;;3.55;;
14770;SDS011;7477;45.222;5.688;2022-09-03T05:51:26;3.88;;;3.40;;
14770;SDS011;7477;45.222;5.688;2022-09-03T05:54:46;4.68;;;3.35;;
14770;SDS011;7477;45.222;5.688;2022-09-03T05:58:05;4.43;;;3.22;;
14770;SDS011;7477;45.222;5.688;2022-09-03T06:01:25;3.42;;;3.13;;
14770;SDS011;7477;45.222;5.688;2022-09-03T06:04:46;5.45;;;2.72;;
14770;SDS011;7477;45.222;5.688;2022-09-03T06:08:06;6.15;;;3.03;;
14770;SDS011;7477;45.222;5.688;2022-09-03T06:11:25;4.45;;;2.70;;
14770;SDS011;7477;45.222;5.688;2022-09-03T06:14:47;10.50;;;3.92;;
14770;SDS011;7477;45.222;5.688;2022-09-03T06:18:06;4.85;;;3.08;;
14770;SDS011;7477;45.222;5.688;2022-09-03T06:21:25;5.18;;;3.17;;
14770;SDS011;7477;45.222;5.688;2022-09-03T06:24:45;3.47;;;3.13;;
14770;SDS011;7477;45.222;5.688;2022-09-03T06:28:04;3.80;;;3.42;;
14770;SDS011;7477;45.222;5.688;2022-09-03T06:31:26;5.97;;;3.20;;
14770;SDS011;7477;45.222;5.688;2022-09-03T06:34:45;5.13;;;3.22;;
14770;SDS011;7477;45.222;5.688;2022-09-03T06:38:05;5.15;;;3.70;;
14770;SDS011;7477;45.222;5.688;2022-09-03T06:41:26;5.60;;;3.35;;
14770;SDS011;7477;45.222;5.688;2022-09-03T06:44:49;3.20;;;2.80;;
14770;SDS011;7477;45.222;5.688;2022-09-03T06:48:09;5.00;;;3.63;;
14770;SDS011;7477;45.222;5.688;2022-09-03T06:51:29;3.75;;;3.33;;
14770;SDS011;7477;45.222;5.688;2022-09-03T06:54:49;4.15;;;2.92;;
14770;SDS011;7477;45.222;5.688;2022-09-03T06:58:08;4.05;;;2.75;;
14770;SDS011;7477;45.222;5.688;2022-09-03T07:01:29;7.22;;;3.30;;
14770;SDS011;7477;45.222;5.688;2022-09-03T07:04:49;3.35;;;3.05;;
14770;SDS011;7477;45.222;5.688;2022-09-03T07:08:09;3.20;;;2.90;;
14770;SDS011;7477;45.222;5.688;2022-09-03T07:11:29;7.25;;;3.45;;
14770;SDS011;7477;45.222;5.688;2022-09-03T07:14:50;4.57;;;3.17;;
14770;SDS011;7477;45.222;5.688;2022-09-03T07:18:10;5.38;;;3.03;;
14770;SDS011;7477;45.222;5.688;2022-09-03T07:21:30;3.50;;;3.20;;
14770;SDS011;7477;45.222;5.688;2022-09-03T07:24:51;3.53;;;2.60;;
14770;SDS011;7477;45.222;5.688;2022-09-03T07:28:10;3.45;;;3.13;;
14770;SDS011;7477;45.222;5.688;2022-09-03T07:31:30;3.30;;;3.00;;
14770;SDS011;7477;45.222;5.688;2022-09-03T07:34:51;4.65;;;3.20;;
14770;SDS011;7477;45.222;5.688;2022-09-03T07:38:10;3.85;;;3.50;;
14770;SDS011;7477;45.222;5.688;2022-09-03T07:41:29;3.50;;;3.20;;
14770;SDS011;7477;45.222;5.688;2022-09-03T07:44:53;6.57;;;3.05;;
14770;SDS011;7477;45.222;5.688;2022-09-03T07:48:13;4.65;;;3.25;;
14770;SDS011;7477;45.222;5.688;2022-09-03T07:51:35;2.97;;;2.75;;
14770;SDS011;7477;45.222;5.688;2022-09-03T07:54:56;3.58;;;2.60;;
14770;SDS011;7477;45.222;5.688;2022-09-03T07:58:15;3.40;;;2.67;;
14770;SDS011;7477;45.222;5.688;2022-09-03T08:01:35;3.67;;;3.00;;
14770;SDS011;7477;45.222;5.688;2022-09-03T08:04:56;4.82;;;3.05;;
14770;SDS011;7477;45.222;5.688;2022-09-03T08:08:15;6.18;;;3.45;;
14770;SDS011;7477;45.222;5.688;2022-09-03T08:11:36;4.18;;;3.38;;
14770;SDS011;7477;45.222;5.688;2022-09-03T08:14:56;7.82;;;3.00;;
14770;SDS011;7477;45.222;5.688;2022-09-03T08:18:16;4.72;;;3.30;;
14770;SDS011;7477;45.222;5.688;2022-09-03T08:21:36;7.10;;;3.60;;
14770;SDS011;7477;45.222;5.688;2022-09-03T08:24:54;3.65;;;3.30;;
14770;SDS011;7477;45.222;5.688;2022-09-03T08:28:14;4.75;;;3.30;;
14770;SDS011;7477;45.222;5.688;2022-09-03T08:31:33;3.30;;;3.00;;
14770;SDS011;7477;45.222;5.688;2022-09-03T08:34:54;3.53;;;3.22;;
14770;SDS011;7477;45.222;5.688;2022-09-03T08:38:13;4.20;;;2.85;;
14770;SDS011;7477;45.222;5.688;2022-09-03T08:45:07;3.35;;;2.83;;
14770;SDS011;7477;45.222;5.688;2022-09-03T08:48:32;5.68;;;3.15;;
14770;SDS011;7477;45.222;5.688;2022-09-03T08:51:52;3.25;;;2.95;;
14770;SDS011;7477;45.222;5.688;2022-09-03T08:55:36;8.35;;;3.95;;
14770;SDS011;7477;45.222;5.688;2022-09-03T08:59:00;7.28;;;4.43;;
14770;SDS011;7477;45.222;5.688;2022-09-03T09:23:45;8.75;;;3.67;;
14770;SDS011;7477;45.222;5.688;2022-09-03T09:27:06;8.35;;;4.07;;
14770;SDS011;7477;45.222;5.688;2022-09-03T09:30:37;7.07;;;4.53;;
14770;SDS011;7477;45.222;5.688;2022-09-03T09:34:03;9.30;;;4.72;;
14770;SDS011;7477;45.222;5.688;2022-09-03T09:37:24;8.98;;;4.65;;
14770;SDS011;7477;45.222;5.688;2022-09-03T09:40:44;9.15;;;4.75;;
14770;SDS011;7477;45.222;5.688;2022-09-03T09:44:03;10.05;;;5.30;;
14770;SDS011;7477;45.222;5.688;2022-09-03T09:50:42;8.20;;;4.45;;
14770;SDS011;7477;45.222;5.688;2022-09-03T09:54:15;13.40;;;4.45;;
14770;SDS011;7477;45.222;5.688;2022-09-03T09:57:39;6.82;;;4.63;;
14770;SDS011;7477;45.222;5.688;2022-09-03T10:01:03;6.18;;;4.50;;
14770;SDS011;7477;45.222;5.688;2022-09-03T10:04:32;5.97;;;4.25;;
14770;SDS011;7477;45.222;5.688;2022-09-03T10:07:56;6.90;;;4.30;;
14770;SDS011;7477;45.222;5.688;2022-09-03T10:11:20;8.52;;;4.25;;
14770;SDS011;7477;45.222;5.688;2022-09-03T10:14:48;7.68;;;5.25;;
14770;SDS011;7477;45.222;5.688;2022-09-03T10:22:11;7.90;;;4.13;;
14770;SDS011;7477;45.222;5.688;2022-09-03T10:25:37;7.53;;;4.40;;
14770;SDS011;7477;45.222;5.688;2022-09-03T10:29:09;7.10;;;4.20;;
14770;SDS011;7477;45.222;5.688;2022-09-03T10:35:57;6.88;;;4.72;;
14770;SDS011;7477;45.222;5.688;2022-09-03T10:43:44;7.63;;;3.42;;
14770;SDS011;7477;45.222;5.688;2022-09-03T10:47:52;4.57;;;3.65;;
14770;SDS011;7477;45.222;5.688;2022-09-03T10:51:39;8.20;;;3.72;;
14770;SDS011;7477;45.222;5.688;2022-09-03T10:55:12;6.32;;;3.90;;
14770;SDS011;7477;45.222;5.688;2022-09-03T11:06:46;4.95;;;2.60;;
14770;SDS011;7477;45.222;5.688;2022-09-03T11:10:24;3.67;;;2.70;;
14770;SDS011;7477;45.222;5.688;2022-09-03T11:17:28;3.60;;;2.72;;
14770;SDS011;7477;45.222;5.688;2022-09-03T11:20:56;2.00;;;1.90;;
14770;SDS011;7477;45.222;5.688;2022-09-03T11:24:23;3.22;;;2.15;;
14770;SDS011;7477;45.222;5.688;2022-09-03T11:35:01;2.13;;;1.80;;
14770;SDS011;7477;45.222;5.688;2022-09-03T11:38:33;1.85;;;1.65;;
14770;SDS011;7477;45.222;5.688;2022-09-03T11:41:56;1.52;;;1.42;;
14770;SDS011;7477;45.222;5.688;2022-09-03T11:48:50;1.45;;;1.35;;
14770;SDS011;7477;45.222;5.688;2022-09-03T11:52:13;1.35;;;1.25;;
14770;SDS011;7477;45.222;5.688;2022-09-03T12:02:44;1.70;;;1.60;;
14770;SDS011;7477;45.222;5.688;2022-09-03T12:13:53;1.70;;;1.60;;
14770;SDS011;7477;45.222;5.688;2022-09-03T12:17:51;1.42;;;1.33;;
14770;SDS011;7477;45.222;5.688;2022-09-03T12:21:37;1.42;;;1.33;;
14770;SDS011;7477;45.222;5.688;2022-09-03T12:25:11;1.35;;;1.25;;
14770;SDS011;7477;45.222;5.688;2022-09-03T12:28:36;3.17;;;2.75;;
14770;SDS011;7477;45.222;5.688;2022-09-03T12:32:04;2.83;;;1.80;;
14770;SDS011;7477;45.222;5.688;2022-09-03T12:35:25;1.60;;;1.50;;
14770;SDS011;7477;45.222;5.688;2022-09-03T12:38:46;2.25;;;1.83;;
14770;SDS011;7477;45.222;5.688;2022-09-03T12:42:09;1.60;;;1.50;;
14770;SDS011;7477;45.222;5.688;2022-09-03T12:45:41;1.40;;;1.30;;
14770;SDS011;7477;45.222;5.688;2022-09-03T12:49:13;2.65;;;2.40;;
14770;SDS011;7477;45.222;5.688;2022-09-03T12:52:38;1.52;;;1.42;;
14770;SDS011;7477;45.222;5.688;2022-09-03T12:56:02;1.38;;;1.27;;
14770;SDS011;7477;45.222;5.688;2022-09-03T12:59:23;1.00;;;1.00;;
14770;SDS011;7477;45.222;5.688;2022-09-03T13:02:50;11.90;;;5.82;;
14770;SDS011;7477;45.222;5.688;2022-09-03T13:06:21;2.10;;;1.90;;
14770;SDS011;7477;45.222;5.688;2022-09-03T13:09:50;1.60;;;1.50;;
14770;SDS011;7477;45.222;5.688;2022-09-03T13:16:53;1.40;;;1.02;;
14770;SDS011;7477;45.222;5.688;2022-09-03T13:24:08;1.60;;;1.50;;
14770;SDS011;7477;45.222;5.688;2022-09-03T13:34:41;5.43;;;3.03;;
14770;SDS011;7477;45.222;5.688;2022-09-03T13:38:12;2.53;;;1.60;;
14770;SDS011;7477;45.222;5.688;2022-09-03T13:42:02;3.35;;;2.47;;
14770;SDS011;7477;45.222;5.688;2022-09-03T13:45:34;2.20;;;2.00;;
14770;SDS011;7477;45.222;5.688;2022-09-03T13:49:16;2.47;;;1.80;;
14770;SDS011;7477;45.222;5.688;2022-09-03T13:53:18;3.55;;;2.47;;
14770;SDS011;7477;45.222;5.688;2022-09-03T14:00:42;3.75;;;3.28;;
14770;SDS011;7477;45.222;5.688;2022-09-03T14:04:10;9.43;;;3.75;;
14770;SDS011;7477;45.222;5.688;2022-09-03T14:07:42;5.80;;;3.67;;
14770;SDS011;7477;45.222;5.688;2022-09-03T14:15:15;10.00;;;4.93;;
14770;SDS011;7477;45.222;5.688;2022-09-03T14:19:04;6.43;;;3.13;;
14770;SDS011;7477;45.222;5.688;2022-09-03T14:22:43;3.50;;;3.00;;
14770;SDS011;7477;45.222;5.688;2022-09-03T14:26:14;3.85;;;2.97;;
14770;SDS011;7477;45.222;5.688;2022-09-03T14:29:59;4.55;;;2.90;;
14770;SDS011;7477;45.222;5.688;2022-09-03T14:37:22;6.00;;;2.67;;
14770;SDS011;7477;45.222;5.688;2022-09-03T14:41:04;3.30;;;2.88;;
14770;SDS011;7477;45.222;5.688;2022-09-03T15:10:15;5.97;;;3.28;;
14770;SDS011;7477;45.222;5.688;2022-09-03T15:17:39;3.05;;;2.60;;
14770;SDS011;7477;45.222;5.688;2022-09-03T15:24:50;4.15;;;3.20;;
14770;SDS011;7477;45.222;5.688;2022-09-03T15:39:04;3.55;;;2.53;;
14770;SDS011;7477;45.222;5.688;2022-09-03T15:42:26;3.40;;;2.42;;
14770;SDS011;7477;45.222;5.688;2022-09-03T15:56:33;2.60;;;2.40;;
14770;SDS011;7477;45.222;5.688;2022-09-03T16:03:42;4.07;;;2.55;;
14770;SDS011;7477;45.222;5.688;2022-09-03T16:07:15;5.43;;;2.50;;
14770;SDS011;7477;45.222;5.688;2022-09-03T16:15:02;5.57;;;2.90;;
14770;SDS011;7477;45.222;5.688;2022-09-03T16:18:38;2.55;;;2.35;;
14770;SDS011;7477;45.222;5.688;2022-09-03T16:29:31;3.95;;;2.67;;
14770;SDS011;7477;45.222;5.688;2022-09-03T16:33:01;6.00;;;3.35;;
14770;SDS011;7477;45.222;5.688;2022-09-03T16:36:57;3.65;;;2.97;;
14770;SDS011;7477;45.222;5.688;2022-09-03T16:47:30;3.10;;;2.80;;
14770;SDS011;7477;45.222;5.688;2022-09-03T16:58:25;2.63;;;2.20;;
14770;SDS011;7477;45.222;5.688;2022-09-03T17:02:16;3.58;;;2.13;;
14770;SDS011;7477;45.222;5.688;2022-09-03T17:16:43;3.85;;;2.40;;
14770;SDS011;7477;45.222;5.688;2022-09-03T17:27:24;4.68;;;2.63;;
14770;SDS011;7477;45.222;5.688;2022-09-03T17:30:56;2.50;;;2.30;;
14770;SDS011;7477;45.222;5.688;2022-09-03T17:49:22;4.75;;;3.58;;
14770;SDS011;7477;45.222;5.688;2022-09-03T17:53:02;4.47;;;3.88;;
14770;SDS011;7477;45.222;5.688;2022-09-03T17:56:32;8.02;;;3.80;;
14770;SDS011;7477;45.222;5.688;2022-09-03T18:00:01;5.22;;;3.80;;
14770;SDS011;7477;45.222;5.688;2022-09-03T18:03:40;9.20;;;4.40;;
14770;SDS011;7477;45.222;5.688;2022-09-03T18:11:10;2.97;;;2.72;;
14770;SDS011;7477;45.222;5.688;2022-09-03T18:18:29;2.95;;;2.47;;
14770;SDS011;7477;45.222;5.688;2022-09-03T18:21:50;8.65;;;2.40;;
14770;SDS011;7477;45.222;5.688;2022-09-03T18:25:28;3.88;;;2.70;;
14770;SDS011;7477;45.222;5.688;2022-09-03T18:29:13;4.63;;;2.40;;
14770;SDS011;7477;45.222;5.688;2022-09-03T18:33:05;4.10;;;2.50;;
14770;SDS011;7477;45.222;5.688;2022-09-03T18:36:43;4.88;;;2.72;;
14770;SDS011;7477;45.222;5.688;2022-09-03T18:40:25;3.05;;;2.35;;
14770;SDS011;7477;45.222;5.688;2022-09-03T18:44:33;2.25;;;2.05;;
14770;SDS011;7477;45.222;5.688;2022-09-03T19:00:14;1.67;;;1.58;;
14770;SDS011;7477;45.222;5.688;2022-09-03T19:07:50;1.88;;;1.67;;
14770;SDS011;7477;45.222;5.688;2022-09-03T19:11:40;1.60;;;1.50;;
14770;SDS011;7477;45.222;5.688;2022-09-03T19:15:42;2.25;;;1.70;;
14770;SDS011;7477;45.222;5.688;2022-09-03T19:23:14;2.75;;;1.40;;
14770;SDS011;7477;45.222;5.688;2022-09-03T19:27:12;2.47;;;1.75;;
14770;SDS011;7477;45.222;5.688;2022-09-03T19:35:22;4.47;;;2.15;;
14770;SDS011;7477;45.222;5.688;2022-09-03T19:42:50;4.28;;;2.10;;
14770;SDS011;7477;45.222;5.688;2022-09-03T19:46:53;4.80;;;2.47;;
14770;SDS011;7477;45.222;5.688;2022-09-03T19:50:36;4.70;;;2.42;;
14770;SDS011;7477;45.222;5.688;2022-09-03T19:54:22;5.40;;;2.35;;
14770;SDS011;7477;45.222;5.688;2022-09-03T19:58:04;7.07;;;2.78;;
14770;SDS011;7477;45.222;5.688;2022-09-03T20:01:42;6.35;;;2.70;;
14770;SDS011;7477;45.222;5.688;2022-09-03T20:05:22;3.85;;;2.42;;
14770;SDS011;7477;45.222;5.688;2022-09-03T20:09:06;8.00;;;2.63;;
14770;SDS011;7477;45.222;5.688;2022-09-03T20:12:47;3.38;;;2.33;;
14770;SDS011;7477;45.222;5.688;2022-09-03T20:16:18;5.85;;;2.33;;
14770;SDS011;7477;45.222;5.688;2022-09-03T20:20:06;3.75;;;2.35;;
14770;SDS011;7477;45.222;5.688;2022-09-03T20:27:48;5.35;;;2.50;;
14770;SDS011;7477;45.222;5.688;2022-09-03T20:34:58;4.43;;;2.35;;
14770;SDS011;7477;45.222;5.688;2022-09-03T20:38:55;6.50;;;2.33;;
14770;SDS011;7477;45.222;5.688;2022-09-03T21:01:26;4.47;;;2.08;;
14770;SDS011;7477;45.222;5.688;2022-09-03T21:08:24;6.65;;;2.60;;
14770;SDS011;7477;45.222;5.688;2022-09-03T21:15:56;6.85;;;2.67;;
14770;SDS011;7477;45.222;5.688;2022-09-03T21:19:40;4.78;;;2.20;;
14770;SDS011;7477;45.222;5.688;2022-09-03T21:23:21;4.72;;;2.97;;
14770;SDS011;7477;45.222;5.688;2022-09-03T21:27:02;3.05;;;2.15;;
14770;SDS011;7477;45.222;5.688;2022-09-03T21:30:44;6.40;;;2.80;;
14770;SDS011;7477;45.222;5.688;2022-09-03T21:34:08;4.55;;;2.83;;
14770;SDS011;7477;45.222;5.688;2022-09-03T21:37:34;2.13;;;1.92;;
14770;SDS011;7477;45.222;5.688;2022-09-03T21:44:37;4.10;;;2.60;;
14770;SDS011;7477;45.222;5.688;2022-09-03T21:48:21;3.17;;;2.45;;
14770;SDS011;7477;45.222;5.688;2022-09-03T21:51:51;5.03;;;2.53;;
14770;SDS011;7477;45.222;5.688;2022-09-03T21:55:37;4.68;;;2.33;;
14770;SDS011;7477;45.222;5.688;2022-09-03T22:02:31;5.82;;;2.70;;
14770;SDS011;7477;45.222;5.688;2022-09-03T22:05:56;4.88;;;3.05;;
14770;SDS011;7477;45.222;5.688;2022-09-03T22:09:33;6.93;;;2.63;;
14770;SDS011;7477;45.222;5.688;2022-09-03T22:20:28;3.88;;;2.22;;
14770;SDS011;7477;45.222;5.688;2022-09-03T22:31:47;4.03;;;2.70;;
14770;SDS011;7477;45.222;5.688;2022-09-03T22:50:59;2.25;;;1.60;;
14770;SDS011;7477;45.222;5.688;2022-09-03T22:54:30;1.92;;;1.65;;
14770;SDS011;7477;45.222;5.688;2022-09-03T22:58:05;2.85;;;1.58;;
14770;SDS011;7477;45.222;5.688;2022-09-03T23:08:57;3.63;;;1.98;;
14770;SDS011;7477;45.222;5.688;2022-09-03T23:12:22;2.33;;;1.90;;
14770;SDS011;7477;45.222;5.688;2022-09-03T23:16:02;4.93;;;2.42;;
14770;SDS011;7477;45.222;5.688;2022-09-03T23:19:34;2.15;;;1.70;;
14770;SDS011;7477;45.222;5.688;2022-09-03T23:30:10;3.40;;;2.00;;
14770;SDS011;7477;45.222;5.688;2022-09-03T23:33:29;4.70;;;2.20;;
14770;SDS011;7477;45.222;5.688;2022-09-03T23:36:59;7.30;;;2.28;;
14770;SDS011;7477;45.222;5.688;2022-09-03T23:40:44;5.53;;;2.40;;
14770;SDS011;7477;45.222;5.688;2022-09-03T23:44:11;2.90;;;2.05;;
14770;SDS011;7477;45.222;5.688;2022-09-03T23:48:12;4.93;;;2.03;;
14770;SDS011;7477;45.222;5.688;2022-09-03T23:55:45;3.22;;;2.33;;
